createdAt,value
2023-02-14T00:00:49.748Z,0.00
2023-02-14T00:01:49.728Z,0.00
2023-02-14T00:02:50.481Z,0.00
2023-02-14T00:03:53.363Z,0.00
2023-02-14T00:04:51.408Z,0.00
2023-02-14T00:05:50.635Z,0.00
2023-02-14T00:06:49.666Z,0.00
2023-02-14T00:07:49.910Z,0.00
2023-02-14T00:08:49.642Z,0.00
2023-02-14T00:09:50.331Z,0.00
2023-02-14T00:10:49.623Z,0.00
2023-02-14T00:11:49.598Z,0.00
2023-02-14T00:12:49.588Z,0.00
2023-02-14T00:13:49.577Z,0.00
2023-02-14T00:14:49.792Z,0.00
2023-02-14T00:15:49.830Z,0.00
2023-02-14T00:16:49.833Z,0.00
2023-02-14T00:17:49.765Z,0.00
2023-02-14T00:18:49.527Z,0.00
2023-02-14T00:19:49.498Z,0.00
2023-02-14T00:20:49.475Z,0.00
2023-02-14T00:21:49.493Z,0.00
2023-02-14T00:22:54.361Z,0.00
2023-02-14T00:23:54.277Z,0.00
2023-02-14T00:24:49.726Z,0.00
2023-02-14T00:25:49.425Z,0.00
2023-02-14T00:26:49.398Z,0.00
2023-02-14T00:27:49.657Z,0.00
2023-02-14T00:28:49.427Z,0.00
2023-02-14T00:29:49.402Z,0.00
2023-02-14T00:30:49.407Z,0.00
2023-02-14T00:31:49.439Z,0.00
2023-02-14T00:32:49.332Z,0.00
2023-02-14T00:33:49.318Z,0.00
2023-02-14T00:34:50.059Z,0.00
2023-02-14T00:35:49.298Z,0.00
2023-02-14T00:36:49.288Z,0.00
2023-02-14T00:37:53.168Z,0.00
2023-02-14T00:38:49.300Z,0.00
2023-02-14T00:39:49.239Z,0.00
2023-02-14T00:40:49.259Z,0.00
2023-02-14T00:41:50.178Z,0.00
2023-02-14T00:42:49.209Z,0.00
2023-02-14T00:43:49.216Z,0.00
2023-02-14T00:44:49.194Z,0.00
2023-02-14T00:45:49.205Z,0.00
2023-02-14T00:46:49.190Z,0.00
2023-02-14T00:47:49.171Z,0.00
2023-02-14T00:48:49.141Z,0.00
2023-02-14T00:49:49.381Z,0.00
2023-02-14T00:50:49.122Z,0.00
2023-02-14T00:51:49.101Z,0.00
2023-02-14T00:52:49.123Z,0.00
2023-02-14T00:53:49.077Z,0.00
2023-02-14T00:54:49.061Z,0.00
2023-02-14T00:55:49.060Z,0.00
2023-02-14T00:56:49.036Z,0.00
2023-02-14T00:57:49.037Z,0.00
2023-02-14T00:58:49.033Z,0.00
2023-02-14T00:59:49.002Z,0.00
2023-02-14T01:00:49.306Z,0.00
2023-02-14T01:01:48.984Z,0.00
2023-02-14T01:02:49.291Z,0.00
2023-02-14T01:03:48.953Z,0.00
2023-02-14T01:04:52.623Z,0.00
2023-02-14T01:05:48.945Z,0.00
2023-02-14T01:06:49.869Z,0.00
2023-02-14T01:07:48.921Z,0.00
2023-02-14T01:08:48.952Z,0.00
2023-02-14T01:09:49.593Z,0.00
2023-02-14T01:10:48.886Z,0.00
2023-02-14T01:11:48.863Z,0.00
2023-02-14T01:12:48.836Z,0.00
2023-02-14T01:13:48.830Z,0.00
2023-02-14T01:14:48.807Z,0.00
2023-02-14T01:15:48.805Z,0.00
2023-02-14T01:16:49.109Z,0.00
2023-02-14T01:17:48.776Z,0.00
2023-02-14T01:18:48.778Z,0.00
2023-02-14T01:19:48.766Z,0.00
2023-02-14T01:20:48.757Z,0.00
2023-02-14T01:21:48.974Z,0.00
2023-02-14T01:22:48.749Z,0.00
2023-02-14T01:23:48.699Z,0.00
2023-02-14T01:24:48.699Z,0.00
2023-02-14T01:25:48.680Z,0.00
2023-02-14T01:26:48.690Z,0.00
2023-02-14T01:27:48.668Z,0.00
2023-02-14T01:28:48.669Z,0.00
2023-02-14T01:29:48.689Z,0.00
2023-02-14T01:30:48.653Z,0.00
2023-02-14T01:31:48.604Z,0.00
2023-02-14T01:32:48.607Z,0.00
2023-02-14T01:33:48.591Z,0.00
2023-02-14T01:34:48.599Z,0.00
2023-02-14T01:35:49.262Z,0.00
2023-02-14T01:36:48.541Z,0.00
2023-02-14T01:37:49.328Z,0.00
2023-02-14T01:38:48.531Z,0.00
2023-02-14T01:39:48.503Z,0.00
2023-02-14T01:40:48.541Z,0.00
2023-02-14T01:41:49.446Z,0.00
2023-02-14T01:42:48.484Z,0.00
2023-02-14T01:43:48.474Z,0.00
2023-02-14T01:44:48.466Z,0.00
2023-02-14T01:45:48.459Z,0.00
2023-02-14T01:46:48.460Z,0.00
2023-02-14T01:47:48.431Z,0.00
2023-02-14T01:48:48.418Z,0.00
2023-02-14T01:49:48.387Z,0.00
2023-02-14T01:50:48.376Z,0.00
2023-02-14T01:51:48.385Z,0.00
2023-02-14T01:52:48.377Z,0.00
2023-02-14T01:53:48.347Z,0.00
2023-02-14T01:54:49.284Z,0.00
2023-02-14T01:55:48.563Z,0.00
2023-02-14T01:56:48.307Z,0.00
2023-02-14T01:57:48.324Z,0.00
2023-02-14T01:58:48.318Z,0.00
2023-02-14T01:59:48.269Z,0.00
2023-02-14T02:00:48.533Z,0.00
2023-02-14T02:01:48.234Z,0.00
2023-02-14T02:02:48.232Z,0.00
2023-02-14T02:03:48.232Z,0.00
2023-02-14T02:04:48.223Z,0.00
2023-02-14T02:05:48.208Z,0.00
2023-02-14T02:06:48.184Z,0.00
2023-02-14T02:07:48.177Z,0.00
2023-02-14T02:08:48.168Z,0.00
2023-02-14T02:09:48.145Z,0.00
2023-02-14T02:10:48.162Z,0.00
2023-02-14T02:11:48.125Z,0.00
2023-02-14T02:12:48.114Z,0.00
2023-02-14T02:13:48.105Z,0.00
2023-02-14T02:14:48.085Z,0.00
2023-02-14T02:15:48.072Z,0.00
2023-02-14T02:16:48.143Z,0.00
2023-02-14T02:17:48.057Z,0.00
2023-02-14T02:18:48.036Z,0.00
2023-02-14T02:19:48.705Z,0.00
2023-02-14T02:20:48.025Z,0.00
2023-02-14T02:21:48.257Z,0.00
2023-02-14T02:22:48.017Z,0.00
2023-02-14T02:23:47.971Z,0.00
2023-02-14T02:24:47.957Z,0.00
2023-02-14T02:25:47.957Z,0.00
2023-02-14T02:26:47.949Z,0.00
2023-02-14T02:27:47.923Z,0.00
2023-02-14T02:28:48.889Z,0.00
2023-02-14T02:29:47.917Z,0.00
2023-02-14T02:30:48.043Z,0.00
2023-02-14T02:31:48.008Z,0.00
2023-02-14T02:32:47.863Z,0.00
2023-02-14T02:33:47.870Z,0.00
2023-02-14T02:34:47.873Z,0.00
2023-02-14T02:35:47.850Z,0.00
2023-02-14T02:36:47.821Z,0.00
2023-02-14T02:37:47.801Z,0.00
2023-02-14T02:38:47.796Z,0.00
2023-02-14T02:39:47.784Z,0.00
2023-02-14T02:40:47.784Z,0.00
2023-02-14T02:41:47.766Z,0.00
2023-02-14T02:42:47.766Z,0.00
2023-02-14T02:43:47.973Z,0.00
2023-02-14T02:44:47.717Z,0.00
2023-02-14T02:45:47.750Z,0.00
2023-02-14T02:46:47.750Z,0.00
2023-02-14T02:47:47.666Z,0.00
2023-02-14T02:48:47.662Z,0.00
2023-02-14T02:49:47.670Z,0.00
2023-02-14T02:50:47.649Z,0.00
2023-02-14T02:51:47.635Z,0.00
2023-02-14T02:52:47.625Z,0.00
2023-02-14T02:53:47.604Z,0.00
2023-02-14T02:54:47.594Z,0.00
2023-02-14T02:55:47.594Z,0.00
2023-02-14T02:56:47.569Z,0.00
2023-02-14T02:57:47.566Z,0.00
2023-02-14T02:58:47.583Z,0.00
2023-02-14T02:59:47.538Z,0.00
2023-02-14T03:00:47.527Z,0.00
2023-02-14T03:01:47.533Z,0.00
2023-02-14T03:02:47.497Z,0.00
2023-02-14T03:03:47.725Z,0.00
2023-02-14T03:04:47.564Z,0.00
2023-02-14T03:05:48.417Z,0.00
2023-02-14T03:06:47.465Z,0.00
2023-02-14T03:07:47.691Z,0.00
2023-02-14T03:08:51.216Z,0.00
2023-02-14T03:09:47.429Z,0.00
2023-02-14T03:10:47.420Z,0.00
2023-02-14T03:11:47.389Z,0.00
2023-02-14T03:12:47.641Z,0.00
2023-02-14T03:13:47.361Z,0.00
2023-02-14T03:14:47.358Z,0.00
2023-02-14T03:15:47.359Z,0.00
2023-02-14T03:16:47.348Z,0.00
2023-02-14T03:17:47.320Z,0.00
2023-02-14T03:18:47.299Z,0.00
2023-02-14T03:19:47.300Z,0.00
2023-02-14T03:20:47.271Z,0.00
2023-02-14T03:21:47.262Z,0.00
2023-02-14T03:22:47.275Z,0.00
2023-02-14T03:23:47.255Z,0.00
2023-02-14T03:24:47.516Z,0.00
2023-02-14T03:25:47.224Z,0.00
2023-02-14T03:26:47.214Z,0.00
2023-02-14T03:27:47.214Z,0.00
2023-02-14T03:28:48.183Z,0.00
2023-02-14T03:29:47.236Z,0.00
2023-02-14T03:30:47.262Z,0.00
2023-02-14T03:31:47.514Z,0.00
2023-02-14T03:32:47.128Z,0.00
2023-02-14T03:33:47.121Z,0.00
2023-02-14T03:34:47.155Z,0.00
2023-02-14T03:35:47.097Z,0.00
2023-02-14T03:36:47.086Z,0.00
2023-02-14T03:37:47.068Z,0.00
2023-02-14T03:38:47.065Z,0.00
2023-02-14T03:39:48.739Z,0.00
2023-02-14T03:40:47.047Z,0.00
2023-02-14T03:41:47.027Z,0.00
2023-02-14T03:42:47.016Z,0.00
2023-02-14T03:43:47.034Z,0.00
2023-02-14T03:44:47.028Z,0.00
2023-02-14T03:45:46.982Z,0.00
2023-02-14T03:46:47.026Z,0.00
2023-02-14T03:47:47.915Z,0.00
2023-02-14T03:48:46.940Z,0.00
2023-02-14T03:49:46.928Z,0.00
2023-02-14T03:50:46.915Z,0.00
2023-02-14T03:51:46.906Z,0.00
2023-02-14T03:52:46.926Z,0.00
2023-02-14T03:53:47.841Z,0.00
2023-02-14T03:54:47.118Z,0.00
2023-02-14T03:55:46.854Z,0.00
2023-02-14T03:56:46.831Z,0.00
2023-02-14T03:57:47.791Z,0.00
2023-02-14T03:58:47.794Z,0.00
2023-02-14T03:59:46.810Z,0.00
2023-02-14T04:00:46.801Z,0.00
2023-02-14T04:01:46.858Z,0.00
2023-02-14T04:02:46.759Z,0.00
2023-02-14T04:03:47.745Z,0.00
2023-02-14T04:04:46.771Z,0.00
2023-02-14T04:05:46.782Z,0.00
2023-02-14T04:06:47.678Z,0.00
2023-02-14T04:07:46.713Z,0.00
2023-02-14T04:08:46.692Z,0.00
2023-02-14T04:09:46.664Z,0.00
2023-02-14T04:10:48.350Z,0.00
2023-02-14T04:11:46.658Z,0.00
2023-02-14T04:12:46.633Z,0.00
2023-02-14T04:13:46.637Z,0.00
2023-02-14T04:14:46.603Z,0.00
2023-02-14T04:15:46.686Z,0.00
2023-02-14T04:16:46.622Z,0.00
2023-02-14T04:17:47.524Z,0.00
2023-02-14T04:18:46.827Z,0.00
2023-02-14T04:19:46.553Z,0.00
2023-02-14T04:20:46.543Z,0.00
2023-02-14T04:21:46.526Z,0.00
2023-02-14T04:22:46.557Z,0.00
2023-02-14T04:23:46.496Z,0.00
2023-02-14T04:24:46.733Z,0.00
2023-02-14T04:25:46.477Z,0.00
2023-02-14T04:26:46.460Z,0.00
2023-02-14T04:27:46.458Z,0.00
2023-02-14T04:28:46.466Z,0.00
2023-02-14T04:29:46.441Z,0.00
2023-02-14T04:30:46.412Z,0.00
2023-02-14T04:31:46.732Z,0.00
2023-02-14T04:32:47.990Z,0.00
2023-02-14T04:33:46.377Z,0.00
2023-02-14T04:34:46.407Z,0.00
2023-02-14T04:35:47.312Z,0.00
2023-02-14T04:36:46.345Z,0.00
2023-02-14T04:37:46.588Z,0.00
2023-02-14T04:38:46.317Z,0.00
2023-02-14T04:39:46.571Z,0.00
2023-02-14T04:40:46.316Z,0.00
2023-02-14T04:41:47.231Z,0.00
2023-02-14T04:42:46.272Z,0.00
2023-02-14T04:43:46.247Z,0.00
2023-02-14T04:44:46.502Z,0.00
2023-02-14T04:45:46.231Z,0.00
2023-02-14T04:46:46.311Z,0.00
2023-02-14T04:47:46.481Z,0.00
2023-02-14T04:48:46.222Z,0.00
2023-02-14T04:49:46.179Z,0.00
2023-02-14T04:50:46.394Z,0.00
2023-02-14T04:51:46.146Z,0.00
2023-02-14T04:52:46.149Z,0.00
2023-02-14T04:53:49.850Z,0.00
2023-02-14T04:54:46.111Z,0.00
2023-02-14T04:55:46.100Z,0.00
2023-02-14T04:56:46.097Z,0.00
2023-02-14T04:57:46.099Z,0.00
2023-02-14T04:58:46.100Z,0.00
2023-02-14T04:59:46.771Z,0.00
2023-02-14T05:00:46.055Z,0.00
2023-02-14T05:01:46.065Z,0.00
2023-02-14T05:02:46.017Z,0.00
2023-02-14T05:03:46.000Z,0.00
2023-02-14T05:04:47.165Z,0.00
2023-02-14T05:05:47.185Z,0.00
2023-02-14T05:06:45.975Z,0.00
2023-02-14T05:07:45.963Z,0.00
2023-02-14T05:08:45.940Z,0.00
2023-02-14T05:09:45.930Z,0.00
2023-02-14T05:10:45.926Z,0.00
2023-02-14T05:11:45.919Z,0.00
2023-02-14T05:12:45.894Z,0.00
2023-02-14T05:13:45.900Z,0.00
2023-02-14T05:14:45.884Z,0.00
2023-02-14T05:15:45.873Z,0.00
2023-02-14T05:16:45.913Z,0.00
2023-02-14T05:17:45.850Z,0.00
2023-02-14T05:18:45.830Z,0.00
2023-02-14T05:19:46.067Z,0.00
2023-02-14T05:20:45.797Z,0.00
2023-02-14T05:21:45.797Z,0.00
2023-02-14T05:22:45.801Z,0.00
2023-02-14T05:23:45.780Z,0.00
2023-02-14T05:24:45.765Z,0.00
2023-02-14T05:25:45.753Z,0.00
2023-02-14T05:26:45.961Z,0.00
2023-02-14T05:27:45.713Z,0.00
2023-02-14T05:28:45.744Z,0.00
2023-02-14T05:29:45.732Z,0.00
2023-02-14T05:30:45.803Z,0.00
2023-02-14T05:31:46.893Z,0.00
2023-02-14T05:32:45.645Z,0.00
2023-02-14T05:33:45.637Z,0.00
2023-02-14T05:34:45.647Z,0.00
2023-02-14T05:35:45.631Z,0.00
2023-02-14T05:36:45.613Z,0.00
2023-02-14T05:37:45.588Z,0.00
2023-02-14T05:38:45.594Z,0.00
2023-02-14T05:39:45.570Z,0.00
2023-02-14T05:40:46.530Z,0.00
2023-02-14T05:41:45.537Z,0.00
2023-02-14T05:42:45.529Z,0.00
2023-02-14T05:43:46.348Z,0.00
2023-02-14T05:44:46.458Z,0.00
2023-02-14T05:45:45.545Z,0.00
2023-02-14T05:46:45.590Z,0.00
2023-02-14T05:47:45.472Z,0.00
2023-02-14T05:48:45.462Z,0.00
2023-02-14T05:49:45.479Z,0.00
2023-02-14T05:50:45.432Z,0.00
2023-02-14T05:51:45.423Z,0.00
2023-02-14T05:52:45.438Z,0.00
2023-02-14T05:53:45.410Z,0.00
2023-02-14T05:54:45.643Z,0.00
2023-02-14T05:55:49.264Z,0.00
2023-02-14T05:56:45.368Z,0.00
2023-02-14T05:57:45.357Z,0.00
2023-02-14T05:58:45.358Z,0.00
2023-02-14T05:59:45.344Z,0.00
2023-02-14T06:00:45.298Z,0.00
2023-02-14T06:01:45.341Z,0.00
2023-02-14T06:02:45.294Z,0.00
2023-02-14T06:03:45.281Z,0.00
2023-02-14T06:04:45.384Z,0.00
2023-02-14T06:05:45.279Z,0.00
2023-02-14T06:06:45.255Z,0.00
2023-02-14T06:07:45.231Z,0.00
2023-02-14T06:08:45.233Z,0.00
2023-02-14T06:09:45.211Z,0.00
2023-02-14T06:10:45.201Z,0.00
2023-02-14T06:11:45.181Z,0.00
2023-02-14T06:12:45.398Z,0.00
2023-02-14T06:13:45.142Z,0.00
2023-02-14T06:14:45.212Z,0.00
2023-02-14T06:15:45.134Z,0.00
2023-02-14T06:16:45.265Z,0.00
2023-02-14T06:17:45.127Z,0.00
2023-02-14T06:18:46.048Z,0.00
2023-02-14T06:19:45.074Z,0.00
2023-02-14T06:20:45.072Z,0.00
2023-02-14T06:21:45.068Z,0.00
2023-02-14T06:22:45.094Z,0.00
2023-02-14T06:23:45.993Z,0.00
2023-02-14T06:24:45.281Z,0.00
2023-02-14T06:25:45.009Z,0.00
2023-02-14T06:26:45.005Z,0.00
2023-02-14T06:27:44.987Z,0.00
2023-02-14T06:28:44.985Z,0.00
2023-02-14T06:29:45.658Z,0.00
2023-02-14T06:30:45.139Z,0.00
2023-02-14T06:31:45.734Z,0.00
2023-02-14T06:32:44.928Z,0.00
2023-02-14T06:33:44.907Z,0.00
2023-02-14T06:34:44.929Z,0.00
2023-02-14T06:35:44.886Z,0.00
2023-02-14T06:36:44.887Z,0.00
2023-02-14T06:37:44.869Z,0.00
2023-02-14T06:38:44.871Z,0.00
2023-02-14T06:39:44.828Z,0.00
2023-02-14T06:40:44.856Z,0.00
2023-02-14T06:41:44.817Z,5.62
2023-02-14T06:42:44.808Z,5.62
2023-02-14T06:43:44.805Z,5.62
2023-02-14T06:44:44.778Z,5.62
2023-02-14T06:45:44.847Z,5.62
2023-02-14T06:46:45.030Z,5.62
2023-02-14T06:47:44.752Z,5.62
2023-02-14T06:48:44.756Z,11.25
2023-02-14T06:49:44.728Z,11.25
2023-02-14T06:50:44.704Z,11.25
2023-02-14T06:51:44.699Z,11.25
2023-02-14T06:52:44.697Z,11.25
2023-02-14T06:53:45.872Z,16.88
2023-02-14T06:54:44.655Z,16.88
2023-02-14T06:55:44.651Z,16.88
2023-02-14T06:56:44.621Z,16.88
2023-02-14T06:57:44.619Z,22.50
2023-02-14T06:58:45.572Z,22.50
2023-02-14T06:59:44.842Z,22.50
2023-02-14T07:00:44.585Z,22.50
2023-02-14T07:01:46.264Z,28.12
2023-02-14T07:02:45.423Z,28.12
2023-02-14T07:03:44.545Z,28.12
2023-02-14T07:04:44.576Z,33.75
2023-02-14T07:05:44.543Z,33.75
2023-02-14T07:06:44.785Z,33.75
2023-02-14T07:07:44.493Z,39.38
2023-02-14T07:08:44.507Z,39.38
2023-02-14T07:09:44.928Z,45.00
2023-02-14T07:10:44.504Z,45.00
2023-02-14T07:11:44.453Z,45.00
2023-02-14T07:12:45.114Z,50.62
2023-02-14T07:13:44.416Z,50.62
2023-02-14T07:14:44.686Z,56.25
2023-02-14T07:15:44.441Z,56.25
2023-02-14T07:16:44.415Z,56.25
2023-02-14T07:17:44.386Z,61.88
2023-02-14T07:18:44.365Z,61.88
2023-02-14T07:19:44.345Z,61.88
2023-02-14T07:20:45.078Z,67.50
2023-02-14T07:21:44.327Z,67.50
2023-02-14T07:22:44.351Z,73.12
2023-02-14T07:23:44.287Z,73.12
2023-02-14T07:24:44.296Z,73.12
2023-02-14T07:25:44.298Z,78.75
2023-02-14T07:26:48.213Z,78.75
2023-02-14T07:27:44.248Z,78.75
2023-02-14T07:28:45.224Z,84.38
2023-02-14T07:29:44.230Z,84.38
2023-02-14T07:30:44.247Z,84.38
2023-02-14T07:31:48.327Z,90.00
2023-02-14T07:32:44.193Z,90.00
2023-02-14T07:33:44.181Z,90.00
2023-02-14T07:34:44.282Z,95.62
2023-02-14T07:35:44.168Z,95.62
2023-02-14T07:36:45.336Z,101.25
2023-02-14T07:37:44.389Z,101.25
2023-02-14T07:38:44.109Z,101.25
2023-02-14T07:39:44.108Z,101.25
2023-02-14T07:40:44.206Z,106.88
2023-02-14T07:41:44.359Z,106.88
2023-02-14T07:42:44.069Z,112.50
2023-02-14T07:43:44.059Z,112.50
2023-02-14T07:44:44.034Z,112.50
2023-02-14T07:45:44.043Z,118.12
2023-02-14T07:46:44.340Z,118.12
2023-02-14T07:47:44.194Z,118.12
2023-02-14T07:48:43.993Z,118.12
2023-02-14T07:49:43.982Z,123.75
2023-02-14T07:50:44.007Z,123.75
2023-02-14T07:51:44.140Z,123.75
2023-02-14T07:52:44.298Z,129.38
2023-02-14T07:53:44.048Z,129.38
2023-02-14T07:54:43.923Z,129.38
2023-02-14T07:55:43.901Z,129.38
2023-02-14T07:56:44.561Z,135.00
2023-02-14T07:57:43.895Z,135.00
2023-02-14T07:58:43.895Z,135.00
2023-02-14T07:59:43.850Z,135.00
2023-02-14T08:00:43.853Z,135.00
2023-02-14T08:01:44.124Z,135.00
2023-02-14T08:02:44.002Z,140.62
2023-02-14T08:03:47.465Z,140.62
2023-02-14T08:04:43.950Z,140.62
2023-02-14T08:05:43.778Z,146.25
2023-02-14T08:06:43.816Z,146.25
2023-02-14T08:07:43.859Z,146.25
2023-02-14T08:08:44.262Z,146.25
2023-02-14T08:09:43.764Z,151.88
2023-02-14T08:10:43.770Z,151.88
2023-02-14T08:11:43.723Z,151.88
2023-02-14T08:12:44.544Z,157.50
2023-02-14T08:14:39.815Z,157.50
2023-02-14T08:15:40.949Z,163.12
2023-02-14T08:16:48.104Z,163.12
2023-02-14T08:17:48.576Z,163.12
2023-02-14T08:18:41.278Z,168.75
2023-02-14T08:19:42.171Z,168.75
2023-02-14T08:21:36.183Z,168.75
2023-02-14T08:22:36.268Z,168.75
2023-02-14T08:23:37.403Z,174.38
2023-02-14T08:24:37.477Z,174.38
2023-02-14T08:25:38.899Z,174.38
2023-02-14T08:26:38.285Z,174.38
2023-02-14T08:27:36.693Z,174.38
2023-02-14T08:28:38.171Z,174.38
2023-02-14T08:29:39.592Z,174.38
2023-02-14T08:30:37.342Z,174.38
2023-02-14T08:31:37.640Z,180.00
2023-02-14T08:32:38.448Z,180.00
2023-02-14T08:33:38.183Z,180.00
2023-02-14T08:34:38.582Z,180.00
2023-02-14T08:35:37.394Z,180.00
2023-02-14T08:36:41.993Z,185.62
2023-02-14T08:37:39.444Z,185.62
2023-02-14T08:38:37.340Z,185.62
2023-02-14T08:39:39.976Z,185.62
2023-02-14T08:40:39.360Z,185.62
2023-02-14T08:41:50.113Z,185.62
2023-02-14T08:42:37.319Z,185.62
2023-02-14T08:43:36.275Z,185.62
2023-02-14T08:44:38.988Z,191.25
2023-02-14T08:45:37.875Z,191.25
2023-02-14T08:46:38.407Z,191.25
2023-02-14T08:47:37.545Z,191.25
2023-02-14T08:48:39.573Z,191.25
2023-02-14T08:49:37.686Z,191.25
2023-02-14T08:50:37.688Z,191.25
2023-02-14T08:51:43.328Z,196.88
2023-02-14T08:52:40.155Z,196.88
2023-02-14T08:53:38.419Z,196.88
2023-02-14T08:54:39.737Z,196.88
2023-02-14T08:55:38.764Z,196.88
2023-02-14T08:56:37.993Z,196.88
2023-02-14T08:57:42.923Z,202.50
2023-02-14T08:58:46.070Z,202.50
2023-02-14T08:59:36.847Z,202.50
2023-02-14T09:00:37.320Z,202.50
2023-02-14T09:01:44.852Z,208.12
2023-02-14T09:02:40.580Z,208.12
2023-02-14T09:03:38.305Z,213.75
2023-02-14T09:04:39.000Z,213.75
2023-02-14T09:05:38.811Z,213.75
2023-02-14T09:06:35.911Z,219.38
2023-02-14T09:08:54.930Z,219.38
2023-02-14T09:10:00.189Z,219.38
2023-02-14T09:11:03.445Z,225.00
2023-02-14T09:13:09.543Z,219.38
2023-02-14T09:14:08.169Z,219.38
2023-02-14T09:15:08.493Z,219.38
2023-02-14T09:16:08.147Z,225.00
2023-02-14T09:17:08.376Z,225.00
2023-02-14T09:18:12.570Z,225.00
2023-02-14T09:19:09.069Z,225.00
2023-02-14T09:20:08.033Z,225.00
2023-02-14T09:21:08.170Z,225.00
2023-02-14T09:22:08.027Z,225.00
2023-02-14T09:23:08.193Z,225.00
2023-02-14T09:24:08.171Z,230.62
2023-02-14T09:25:07.986Z,230.62
2023-02-14T09:26:08.064Z,230.62
2023-02-14T09:27:08.437Z,230.62
2023-02-14T09:28:08.007Z,230.62
2023-02-14T09:29:07.929Z,230.62
2023-02-14T09:30:08.118Z,230.62
2023-02-14T09:31:08.149Z,230.62
2023-02-14T09:32:12.161Z,230.62
2023-02-14T09:33:08.305Z,230.62
2023-02-14T09:34:07.907Z,236.25
2023-02-14T09:35:08.166Z,236.25
2023-02-14T09:36:19.086Z,236.25
2023-02-14T09:37:11.825Z,236.25
2023-02-14T09:38:08.183Z,236.25
2023-02-14T09:39:08.186Z,236.25
2023-02-14T09:40:07.852Z,236.25
2023-02-14T09:41:07.802Z,236.25
2023-02-14T09:42:08.156Z,236.25
2023-02-14T09:43:08.183Z,236.25
2023-02-14T09:44:07.950Z,236.25
2023-02-14T09:45:08.084Z,236.25
2023-02-14T09:46:08.087Z,236.25
2023-02-14T09:47:07.730Z,241.88
2023-02-14T09:48:07.712Z,241.88
2023-02-14T09:49:07.966Z,241.88
2023-02-14T09:50:11.936Z,241.88
2023-02-14T09:51:07.679Z,241.88
2023-02-14T09:52:08.028Z,241.88
2023-02-14T09:53:07.650Z,241.88
2023-02-14T09:54:07.661Z,241.88
2023-02-14T09:55:07.611Z,241.88
2023-02-14T09:56:07.604Z,241.88
2023-02-14T09:57:08.094Z,241.88
2023-02-14T09:58:07.565Z,241.88
2023-02-14T09:59:08.003Z,241.88
2023-02-14T10:00:07.804Z,241.88
2023-02-14T10:01:07.520Z,241.88
2023-02-14T10:02:07.840Z,241.88
2023-02-14T10:03:07.545Z,241.88
2023-02-14T10:04:07.526Z,241.88
2023-02-14T10:05:07.506Z,241.88
2023-02-14T10:06:07.474Z,241.88
2023-02-14T10:07:07.655Z,236.25
2023-02-14T10:08:11.427Z,236.25
2023-02-14T10:09:07.463Z,236.25
2023-02-14T10:10:07.741Z,236.25
2023-02-14T10:11:07.687Z,236.25
2023-02-14T10:12:07.659Z,236.25
2023-02-14T10:13:07.395Z,236.25
2023-02-14T10:14:08.308Z,236.25
2023-02-14T10:15:07.380Z,236.25
2023-02-14T10:16:07.348Z,236.25
2023-02-14T10:17:07.352Z,236.25
2023-02-14T10:18:07.311Z,236.25
2023-02-14T10:19:07.537Z,236.25
2023-02-14T10:20:07.301Z,236.25
2023-02-14T10:21:07.278Z,236.25
2023-02-14T10:22:07.808Z,236.25
2023-02-14T10:23:07.238Z,236.25
2023-02-14T10:24:07.570Z,236.25
2023-02-14T10:25:08.181Z,236.25
2023-02-14T10:26:07.292Z,236.25
2023-02-14T10:27:28.477Z,230.62
2023-02-14T10:28:07.170Z,230.62
2023-02-14T10:29:07.162Z,230.62
2023-02-14T10:30:07.269Z,230.62
2023-02-14T10:31:07.448Z,230.62
2023-02-14T10:32:09.003Z,230.62
2023-02-14T10:33:07.408Z,230.62
2023-02-14T10:34:07.931Z,230.62
2023-02-14T10:35:07.115Z,230.62
2023-02-14T10:36:07.105Z,230.62
2023-02-14T10:37:07.099Z,230.62
2023-02-14T10:38:07.034Z,230.62
2023-02-14T10:39:07.475Z,230.62
2023-02-14T10:40:08.016Z,230.62
2023-02-14T10:41:07.028Z,230.62
2023-02-14T10:42:07.736Z,230.62
2023-02-14T10:43:06.977Z,230.62
2023-02-14T10:44:06.961Z,230.62
2023-02-14T10:45:07.117Z,236.25
2023-02-14T10:46:07.018Z,236.25
2023-02-14T10:47:07.018Z,236.25
2023-02-14T10:48:07.883Z,236.25
2023-02-14T10:49:07.119Z,236.25
2023-02-14T10:50:06.920Z,236.25
2023-02-14T10:51:10.608Z,236.25
2023-02-14T10:52:11.307Z,236.25
2023-02-14T10:53:06.872Z,236.25
2023-02-14T10:54:08.061Z,236.25
2023-02-14T10:55:06.811Z,236.25
2023-02-14T10:56:07.289Z,236.25
2023-02-14T10:57:07.741Z,236.25
2023-02-14T10:58:06.853Z,236.25
2023-02-14T10:59:06.783Z,236.25
2023-02-14T11:00:07.481Z,236.25
2023-02-14T11:01:06.837Z,236.25
2023-02-14T11:02:07.104Z,236.25
2023-02-14T11:03:06.854Z,236.25
2023-02-14T11:04:06.707Z,236.25
2023-02-14T11:05:06.696Z,236.25
2023-02-14T11:06:06.702Z,236.25
2023-02-14T11:07:06.787Z,236.25
2023-02-14T11:08:06.814Z,236.25
2023-02-14T11:09:06.681Z,236.25
2023-02-14T11:10:07.023Z,236.25
2023-02-14T11:11:06.869Z,236.25
2023-02-14T11:12:06.637Z,236.25
2023-02-14T11:13:06.728Z,236.25
2023-02-14T11:14:06.579Z,236.25
2023-02-14T11:15:06.680Z,241.88
2023-02-14T11:16:07.282Z,241.88
2023-02-14T11:17:06.698Z,241.88
2023-02-14T11:18:06.819Z,241.88
2023-02-14T11:19:06.779Z,241.88
2023-02-14T11:20:06.524Z,241.88
2023-02-14T11:21:15.921Z,241.88
2023-02-14T11:22:17.611Z,241.88
2023-02-14T11:23:06.461Z,241.88
2023-02-14T11:24:06.917Z,241.88
2023-02-14T11:25:06.452Z,241.88
2023-02-14T11:26:07.384Z,241.88
2023-02-14T11:27:06.536Z,241.88
2023-02-14T11:28:06.443Z,241.88
2023-02-14T11:29:06.596Z,241.88
2023-02-14T11:30:06.398Z,241.88
2023-02-14T11:31:06.428Z,241.88
2023-02-14T11:32:06.482Z,241.88
2023-02-14T11:33:06.382Z,241.88
2023-02-14T11:34:08.044Z,241.88
2023-02-14T11:35:06.305Z,247.50
2023-02-14T11:36:06.388Z,247.50
2023-02-14T11:37:07.234Z,247.50
2023-02-14T11:38:06.517Z,247.50
2023-02-14T11:39:06.337Z,247.50
2023-02-14T11:40:10.525Z,247.50
2023-02-14T11:41:06.512Z,247.50
2023-02-14T11:42:06.219Z,247.50
2023-02-14T11:43:13.964Z,247.50
2023-02-14T11:44:07.380Z,247.50
2023-02-14T11:45:06.889Z,253.12
2023-02-14T11:46:06.445Z,253.12
2023-02-14T11:47:07.850Z,253.12
2023-02-14T11:48:06.390Z,253.12
2023-02-14T11:49:06.808Z,253.12
2023-02-14T11:50:06.401Z,253.12
2023-02-14T11:51:06.386Z,253.12
2023-02-14T11:52:06.360Z,253.12
2023-02-14T11:53:06.340Z,253.12
2023-02-14T11:54:06.832Z,258.75
2023-02-14T11:55:09.833Z,258.75
2023-02-14T11:56:07.324Z,258.75
2023-02-14T11:57:06.054Z,258.75
2023-02-14T11:58:06.028Z,258.75
2023-02-14T11:59:05.995Z,258.75
2023-02-14T12:00:05.994Z,258.75
2023-02-14T12:01:06.802Z,258.75
2023-02-14T12:02:06.286Z,258.75
2023-02-14T12:03:06.704Z,264.38
2023-02-14T12:04:05.964Z,264.38
2023-02-14T12:05:05.938Z,264.38
2023-02-14T12:06:05.927Z,264.38
2023-02-14T12:07:06.909Z,264.38
2023-02-14T12:08:05.949Z,264.38
2023-02-14T12:09:06.039Z,264.38
2023-02-14T12:10:05.868Z,264.38
2023-02-14T12:11:06.603Z,270.00
2023-02-14T12:12:09.482Z,270.00
2023-02-14T12:13:06.110Z,270.00
2023-02-14T12:14:06.092Z,270.00
2023-02-14T12:15:05.826Z,270.00
2023-02-14T12:16:06.091Z,270.00
2023-02-14T12:17:05.783Z,270.00
2023-02-14T12:18:06.016Z,270.00
2023-02-14T12:19:05.772Z,270.00
2023-02-14T12:20:06.733Z,270.00
2023-02-14T12:21:05.752Z,270.00
2023-02-14T12:22:05.977Z,270.00
2023-02-14T12:23:05.725Z,275.62
2023-02-14T12:24:05.711Z,275.62
2023-02-14T12:25:05.691Z,275.62
2023-02-14T12:26:09.689Z,275.62
2023-02-14T12:27:06.627Z,275.62
2023-02-14T12:28:05.836Z,275.62
2023-02-14T12:29:05.884Z,275.62
2023-02-14T12:30:05.958Z,275.62
2023-02-14T12:31:06.000Z,275.62
2023-02-14T12:32:06.954Z,275.62
2023-02-14T12:33:05.959Z,275.62
2023-02-14T12:34:05.555Z,281.25
2023-02-14T12:35:05.564Z,281.25
2023-02-14T12:36:06.274Z,281.25
2023-02-14T12:37:05.549Z,281.25
2023-02-14T12:38:05.787Z,281.25
2023-02-14T12:39:05.553Z,281.25
2023-02-14T12:40:05.673Z,281.25
2023-02-14T12:41:05.499Z,281.25
2023-02-14T12:42:05.505Z,281.25
2023-02-14T12:43:05.450Z,281.25
2023-02-14T12:44:05.720Z,281.25
2023-02-14T12:45:05.764Z,281.25
2023-02-14T12:46:05.412Z,281.25
2023-02-14T12:47:05.405Z,281.25
2023-02-14T12:48:05.366Z,281.25
2023-02-14T12:49:16.446Z,281.25
2023-02-14T12:50:05.397Z,281.25
2023-02-14T12:51:06.197Z,281.25
2023-02-14T12:52:05.348Z,281.25
2023-02-14T12:53:09.141Z,281.25
2023-02-14T12:54:05.363Z,281.25
2023-02-14T12:55:09.231Z,275.62
2023-02-14T12:56:05.313Z,281.25
2023-02-14T12:57:08.235Z,275.62
2023-02-14T12:58:05.290Z,275.62
2023-02-14T12:59:05.913Z,275.62
2023-02-14T13:00:06.047Z,275.62